Florence, Indiana
Current Conditions -  °F | °C
As of 6:52 AM on Saturday 25 Oct 2014 (Local Time) from KCVG Reporting Station
Haze Haze  
Wind Chill:   Ceiling: 25000
Heat Index:   Visibility: 6mi
Dew Point:   Wind: 7mph
Humidity: 86%   Direction: 190°S
Pressure: 30"   Gusts: NA
Location:  38.78°N, 84.92°W
Report Text: KCVG 251052Z 19006KT 6SM BR BKN250 08/06 A3000 RMK AO2 SLP159 T00780056
Loading
Personal Weather Stations






























Interactive Weather Map
Tropical Storm Tracking
New forecast layout! Learn more

10-Day Weather Forecast

Advertisements
Track Severe Weather on mobile